createdAt,value
2018-09-12T00:01:32.139Z,4.97
2018-09-12T00:04:00.519Z,5.57
2018-09-12T00:06:28.973Z,10.90
2018-09-12T00:08:57.412Z,4.40
2018-09-12T00:11:25.793Z,7.97
2018-09-12T00:13:54.105Z,4.20
2018-09-12T00:16:22.531Z,4.33
2018-09-12T00:18:50.879Z,4.73
2018-09-12T00:21:19.294Z,7.40
2018-09-12T00:23:47.691Z,7.13
2018-09-12T00:26:17.117Z,8.47
2018-09-12T00:28:45.470Z,5.03
2018-09-12T00:31:13.975Z,5.47
2018-09-12T00:33:42.333Z,4.40
2018-09-12T00:36:10.838Z,4.47
2018-09-12T00:38:39.225Z,7.10
2018-09-12T00:41:07.572Z,5.57
2018-09-12T00:43:35.937Z,6.47
2018-09-12T00:46:04.344Z,5.83
2018-09-12T00:48:32.704Z,4.87
2018-09-12T00:51:01.047Z,4.70
2018-09-12T00:53:29.393Z,7.87
2018-09-12T00:55:57.735Z,6.13
2018-09-12T00:58:26.104Z,4.73
2018-09-12T01:00:54.468Z,5.17
2018-09-12T01:03:22.878Z,5.27
2018-09-12T01:05:51.800Z,6.50
2018-09-12T01:08:20.180Z,5.20
2018-09-12T01:10:48.613Z,5.33
2018-09-12T01:13:17.545Z,5.00
2018-09-12T01:15:45.930Z,5.60
2018-09-12T01:18:18.803Z,4.80
2018-09-12T01:20:47.824Z,5.43
2018-09-12T01:23:16.174Z,5.47
2018-09-12T01:25:44.566Z,7.63
2018-09-12T01:28:13.244Z,8.20
2018-09-12T01:30:42.230Z,6.83
2018-09-12T01:33:10.616Z,4.27
2018-09-12T01:35:38.976Z,6.33
2018-09-12T01:38:08.066Z,6.30
2018-09-12T01:40:36.432Z,5.90
2018-09-12T01:43:05.490Z,6.33
2018-09-12T01:45:33.863Z,6.40
2018-09-12T01:48:02.283Z,5.83
2018-09-12T01:50:30.700Z,4.50
2018-09-12T01:52:59.044Z,9.00
2018-09-12T01:55:27.426Z,7.97
2018-09-12T01:57:55.775Z,5.80
2018-09-12T02:00:29.356Z,4.57
2018-09-12T02:02:57.724Z,5.90
2018-09-12T02:05:26.101Z,6.10
2018-09-12T02:07:54.524Z,5.23
2018-09-12T02:10:22.856Z,5.30
2018-09-12T02:12:51.237Z,10.53
2018-09-12T02:15:19.582Z,7.37
2018-09-12T02:17:47.969Z,7.87
2018-09-12T02:20:16.339Z,6.00
2018-09-12T02:22:44.700Z,5.13
2018-09-12T02:25:13.263Z,6.43
2018-09-12T02:27:41.630Z,5.50
2018-09-12T02:30:10.007Z,6.50
2018-09-12T02:32:38.438Z,8.67
2018-09-12T02:35:06.845Z,6.63
2018-09-12T02:37:35.529Z,5.13
2018-09-12T02:40:03.994Z,6.20
2018-09-12T02:42:32.360Z,6.40
2018-09-12T02:45:00.805Z,6.97
2018-09-12T02:47:34.571Z,6.80
2018-09-12T02:50:03.175Z,7.07
2018-09-12T02:52:31.510Z,7.00
2018-09-12T02:54:59.919Z,5.70
2018-09-12T02:57:28.282Z,5.77
2018-09-12T02:59:56.673Z,6.30
2018-09-12T03:02:25.042Z,4.80
2018-09-12T03:04:54.010Z,8.30
2018-09-12T03:07:22.433Z,11.80
2018-09-12T03:09:51.133Z,5.63
2018-09-12T03:12:19.958Z,8.63
2018-09-12T03:14:48.387Z,5.33
2018-09-12T03:17:16.760Z,4.20
2018-09-12T03:19:45.107Z,7.40
2018-09-12T03:22:14.238Z,4.80
2018-09-12T03:24:42.895Z,4.50
2018-09-12T03:27:11.306Z,8.33
2018-09-12T03:29:39.658Z,8.03
2018-09-12T03:32:08.000Z,4.93
2018-09-12T03:34:36.445Z,6.10
2018-09-12T03:37:04.864Z,4.93
2018-09-12T03:39:33.230Z,6.73
2018-09-12T03:42:01.610Z,10.50
2018-09-12T03:44:30.137Z,8.47
2018-09-12T03:46:58.471Z,6.07
2018-09-12T03:49:26.860Z,4.90
2018-09-12T03:51:55.182Z,6.50
2018-09-12T03:54:23.560Z,5.67
2018-09-12T03:56:51.957Z,5.30
2018-09-12T03:59:20.347Z,7.00
2018-09-12T04:01:48.703Z,6.33
2018-09-12T04:04:17.045Z,9.20
2018-09-12T04:06:45.379Z,5.90
2018-09-12T04:09:13.742Z,7.50
2018-09-12T04:11:42.153Z,5.20
2018-09-12T04:14:10.534Z,5.77
2018-09-12T04:16:38.938Z,7.60
2018-09-12T04:19:07.246Z,9.87
2018-09-12T04:21:35.602Z,6.73
2018-09-12T04:24:04.052Z,6.00
2018-09-12T04:26:32.426Z,7.40
2018-09-12T04:29:00.766Z,6.93
2018-09-12T04:31:29.155Z,8.20
2018-09-12T04:33:57.515Z,9.63
2018-09-12T04:36:25.910Z,7.43
2018-09-12T04:38:54.315Z,6.13
2018-09-12T04:41:22.678Z,5.50
2018-09-12T04:43:51.027Z,5.83
2018-09-12T04:46:19.423Z,9.20
2018-09-12T04:48:47.919Z,8.83
2018-09-12T04:51:16.303Z,9.40
2018-09-12T04:53:44.690Z,8.20
2018-09-12T04:56:13.135Z,8.43
2018-09-12T04:58:41.591Z,6.70
2018-09-12T05:01:09.999Z,7.20
2018-09-12T05:03:38.376Z,10.93
2018-09-12T05:06:06.839Z,9.23
2018-09-12T05:08:35.276Z,5.07
2018-09-12T05:11:03.641Z,8.33
2018-09-12T05:13:32.180Z,8.47
2018-09-12T05:16:01.299Z,7.80
2018-09-12T05:18:29.599Z,6.27
2018-09-12T05:20:57.915Z,8.40
2018-09-12T05:23:26.295Z,6.30
2018-09-12T05:25:54.660Z,14.13
2018-09-12T05:28:23.057Z,10.57
2018-09-12T05:30:51.558Z,13.87
2018-09-12T05:33:20.022Z,9.80
2018-09-12T05:35:48.412Z,10.63
2018-09-12T05:38:16.870Z,14.27
2018-09-12T05:40:45.274Z,10.73
2018-09-12T05:43:14.176Z,12.60
2018-09-12T05:45:42.541Z,7.97
2018-09-12T05:48:10.977Z,11.37
2018-09-12T05:50:39.346Z,14.40
2018-09-12T05:53:07.713Z,11.10
2018-09-12T05:55:36.095Z,13.20
2018-09-12T05:58:04.584Z,10.07
2018-09-12T06:00:33.089Z,14.77
2018-09-12T06:03:01.444Z,9.77
2018-09-12T06:05:29.792Z,13.87
2018-09-12T06:07:58.155Z,9.53
2018-09-12T06:10:26.572Z,13.53
2018-09-12T06:12:55.417Z,9.63
2018-09-12T06:15:23.834Z,12.47
2018-09-12T06:17:52.303Z,9.00
2018-09-12T06:20:20.803Z,10.40
2018-09-12T06:22:49.182Z,9.73
2018-09-12T06:25:17.560Z,14.10
2018-09-12T06:27:45.954Z,15.67
2018-09-12T06:30:14.349Z,11.70
2018-09-12T06:32:42.695Z,8.83
2018-09-12T06:35:11.134Z,12.37
2018-09-12T06:37:39.555Z,12.23
2018-09-12T06:40:07.951Z,15.13
2018-09-12T06:42:36.379Z,18.67
2018-09-12T06:45:04.785Z,15.63
2018-09-12T06:47:33.230Z,11.77
2018-09-12T06:50:01.607Z,15.20
2018-09-12T06:52:30.008Z,18.67
2018-09-12T06:54:58.408Z,10.80
2018-09-12T06:57:26.786Z,16.53
2018-09-12T06:59:55.135Z,13.13
2018-09-12T07:02:23.554Z,12.90
2018-09-12T07:04:52.530Z,13.53
2018-09-12T07:07:20.879Z,17.37
2018-09-12T07:09:49.314Z,10.90
2018-09-12T07:12:19.935Z,13.13
2018-09-12T07:14:48.323Z,17.20
2018-09-12T07:17:16.706Z,14.33
2018-09-12T07:19:45.074Z,12.97
2018-09-12T07:22:13.475Z,14.37
2018-09-12T07:24:41.934Z,18.47
2018-09-12T07:27:10.553Z,15.23
2018-09-12T07:29:38.903Z,12.60
2018-09-12T07:32:07.296Z,9.37
2018-09-12T07:34:35.702Z,13.33
2018-09-12T07:37:04.077Z,11.23
2018-09-12T07:39:32.506Z,12.33
2018-09-12T07:42:00.928Z,11.40
2018-09-12T07:44:29.468Z,11.87
2018-09-12T07:46:57.856Z,8.23
2018-09-12T07:49:26.249Z,10.47
2018-09-12T07:51:54.993Z,11.83
2018-09-12T07:54:23.323Z,14.07
2018-09-12T07:56:51.788Z,10.10
2018-09-12T07:59:20.169Z,9.50
2018-09-12T08:01:48.612Z,12.10
2018-09-12T08:04:17.040Z,7.70
2018-09-12T08:06:45.395Z,8.53
2018-09-12T08:09:14.140Z,9.50
2018-09-12T08:11:43.001Z,7.80
2018-09-12T08:14:11.587Z,7.97
2018-09-12T08:16:40.693Z,6.73
2018-09-12T08:19:10.005Z,12.53
2018-09-12T08:21:38.324Z,7.10
2018-09-12T08:24:06.753Z,9.40
2018-09-12T08:26:35.224Z,9.83
2018-09-12T08:29:03.650Z,12.43
2018-09-12T08:31:32.067Z,9.37
2018-09-12T08:34:00.397Z,13.47
2018-09-12T08:36:28.893Z,6.60
2018-09-12T08:38:57.174Z,9.10
2018-09-12T08:41:25.623Z,8.87
2018-09-12T08:43:54.048Z,6.57
2018-09-12T08:46:22.458Z,13.20
2018-09-12T08:48:50.852Z,6.57
2018-09-12T08:51:19.332Z,6.83
2018-09-12T08:53:47.719Z,6.93
2018-09-12T08:56:16.137Z,10.23
2018-09-12T08:58:44.513Z,6.83
2018-09-12T09:01:12.879Z,6.87
2018-09-12T09:03:41.358Z,9.27
2018-09-12T09:06:10.481Z,10.57
2018-09-12T09:08:38.946Z,7.97
2018-09-12T09:11:07.316Z,7.00
2018-09-12T09:13:35.713Z,6.93
2018-09-12T09:16:04.128Z,5.90
2018-09-12T09:18:32.742Z,8.00
2018-09-12T09:21:01.159Z,7.10
2018-09-12T09:23:29.569Z,9.37
2018-09-12T09:25:57.968Z,14.40
2018-09-12T09:28:26.367Z,6.30
2018-09-12T09:30:54.818Z,9.17
2018-09-12T09:33:23.217Z,7.00
2018-09-12T09:35:52.598Z,6.73
2018-09-12T09:38:21.183Z,7.30
2018-09-12T09:40:49.585Z,5.20
2018-09-12T09:43:17.991Z,4.60
2018-09-12T09:45:46.386Z,6.60
2018-09-12T09:48:14.836Z,6.93
2018-09-12T09:50:43.335Z,5.80
2018-09-12T09:53:11.788Z,7.33
2018-09-12T09:55:40.239Z,9.77
2018-09-12T09:58:08.663Z,5.23
2018-09-12T10:00:42.367Z,7.13
2018-09-12T10:03:16.231Z,8.53
2018-09-12T10:05:49.966Z,5.73
2018-09-12T10:08:23.592Z,6.80
2018-09-12T10:10:51.990Z,5.50
2018-09-12T10:13:20.364Z,5.93
2018-09-12T10:15:48.824Z,8.23
2018-09-12T10:18:17.165Z,5.80
2018-09-12T10:20:45.662Z,9.83
2018-09-12T10:23:14.035Z,8.63
2018-09-12T10:25:42.717Z,10.67
2018-09-12T10:28:11.098Z,8.33
2018-09-12T10:30:39.523Z,6.03
2018-09-12T10:33:07.931Z,7.80
2018-09-12T10:35:36.306Z,5.83
2018-09-12T10:38:04.721Z,7.03
2018-09-12T10:40:33.110Z,12.90
2018-09-12T10:43:01.550Z,6.77
2018-09-12T10:45:29.927Z,7.00
2018-09-12T10:47:58.923Z,7.67
2018-09-12T10:50:27.264Z,7.50
2018-09-12T10:52:55.632Z,5.80
2018-09-12T10:55:24.022Z,7.87
2018-09-12T10:57:52.389Z,9.97
2018-09-12T11:00:20.856Z,6.70
2018-09-12T11:02:49.253Z,6.67
2018-09-12T11:05:17.626Z,7.50
2018-09-12T11:07:45.989Z,5.70
2018-09-12T11:10:14.456Z,5.93
2018-09-12T11:12:42.872Z,7.90
2018-09-12T11:15:11.318Z,7.43
2018-09-12T11:17:39.663Z,5.83
2018-09-12T11:20:08.085Z,12.73
2018-09-12T11:22:36.502Z,5.83
2018-09-12T11:25:05.007Z,7.10
2018-09-12T11:27:33.390Z,8.80
2018-09-12T11:30:01.839Z,5.60
2018-09-12T11:32:30.211Z,6.27
2018-09-12T11:34:58.625Z,5.53
2018-09-12T11:37:27.005Z,7.30
2018-09-12T11:39:55.453Z,6.27
2018-09-12T11:42:23.831Z,6.40
2018-09-12T11:44:52.220Z,6.23
2018-09-12T11:47:20.689Z,13.93
2018-09-12T11:49:49.859Z,7.47
2018-09-12T11:52:18.239Z,5.27
2018-09-12T11:54:46.687Z,5.40
2018-09-12T11:57:15.043Z,9.77
2018-09-12T11:59:43.536Z,4.40
2018-09-12T12:02:11.960Z,4.90
2018-09-12T12:04:40.303Z,6.20
2018-09-12T12:07:08.828Z,5.97
2018-09-12T12:09:37.250Z,5.07
2018-09-12T12:12:05.703Z,5.10
2018-09-12T12:14:34.838Z,4.53
2018-09-12T12:17:03.643Z,8.30
2018-09-12T12:19:32.019Z,7.30
2018-09-12T12:22:00.418Z,4.97
2018-09-12T12:24:28.823Z,4.80
2018-09-12T12:26:57.231Z,5.00
2018-09-12T12:29:25.627Z,4.57
2018-09-12T12:31:54.422Z,4.47
2018-09-12T12:34:22.778Z,5.37
2018-09-12T12:36:51.178Z,8.90
2018-09-12T12:39:19.609Z,6.47
2018-09-12T12:41:48.048Z,5.20
2018-09-12T12:44:16.414Z,5.27
2018-09-12T12:46:44.861Z,6.73
2018-09-12T12:49:13.345Z,4.20
2018-09-12T12:51:41.723Z,7.23
2018-09-12T12:54:10.117Z,4.30
2018-09-12T12:56:38.530Z,5.23
2018-09-12T12:59:06.964Z,7.20
2018-09-12T13:01:35.374Z,4.70
2018-09-12T13:04:03.778Z,4.00
2018-09-12T13:06:32.210Z,4.87
2018-09-12T13:09:00.673Z,6.67
2018-09-12T13:11:29.075Z,5.27
2018-09-12T13:13:57.490Z,5.33
2018-09-12T13:16:25.911Z,6.20
2018-09-12T13:18:54.314Z,5.57
2018-09-12T13:21:22.727Z,4.57
2018-09-12T13:23:51.064Z,5.37
2018-09-12T13:26:19.599Z,4.97
2018-09-12T13:28:48.114Z,4.53
2018-09-12T13:31:16.526Z,4.50
2018-09-12T13:33:44.994Z,4.23
2018-09-12T13:36:13.378Z,3.87
2018-09-12T13:38:41.799Z,9.13
2018-09-12T13:41:10.254Z,4.13
2018-09-12T13:43:38.627Z,8.53
2018-09-12T13:46:07.391Z,4.70
2018-09-12T13:48:35.810Z,5.27
2018-09-12T13:51:04.339Z,4.60
2018-09-12T13:53:32.712Z,5.33
2018-09-12T13:56:01.120Z,4.40
2018-09-12T13:58:29.522Z,4.80
2018-09-12T14:00:57.934Z,5.47
2018-09-12T14:03:27.287Z,4.80
2018-09-12T14:05:55.708Z,4.70
2018-09-12T14:08:24.120Z,6.00
2018-09-12T14:10:52.555Z,7.80
2018-09-12T14:13:20.910Z,9.80
2018-09-12T14:15:49.292Z,4.33
2018-09-12T14:18:17.778Z,5.57
2018-09-12T14:20:46.248Z,5.00
2018-09-12T14:23:14.612Z,5.47
2018-09-12T14:25:43.012Z,4.20
2018-09-12T14:28:11.347Z,4.40
2018-09-12T14:30:39.830Z,3.80
2018-09-12T14:33:08.206Z,4.87
2018-09-12T14:35:36.754Z,4.57
2018-09-12T14:38:05.131Z,7.80
2018-09-12T14:40:33.579Z,4.50
2018-09-12T14:43:01.934Z,5.43
2018-09-12T14:45:30.717Z,4.10
2018-09-12T14:47:59.347Z,5.10
2018-09-12T14:50:28.268Z,5.00
2018-09-12T14:52:56.762Z,5.80
2018-09-12T14:55:25.123Z,3.60
2018-09-12T14:57:53.809Z,7.20
2018-09-12T15:00:28.078Z,4.77
2018-09-12T15:02:57.907Z,3.73
2018-09-12T15:05:26.709Z,4.40
2018-09-12T15:07:55.779Z,3.33
2018-09-12T15:10:24.418Z,3.23
2018-09-12T15:12:52.792Z,6.10
2018-09-12T15:15:21.138Z,5.83
2018-09-12T15:17:49.552Z,3.40
2018-09-12T15:20:17.907Z,6.73
2018-09-12T15:22:46.296Z,7.90
2018-09-12T15:25:15.550Z,4.80
2018-09-12T15:27:44.011Z,3.73
2018-09-12T15:30:12.394Z,3.90
2018-09-12T15:32:40.830Z,3.10
2018-09-12T15:35:09.201Z,3.30
2018-09-12T15:37:37.642Z,3.23
2018-09-12T15:40:06.319Z,2.90
2018-09-12T15:42:34.730Z,3.00
2018-09-12T15:45:03.174Z,3.87
2018-09-12T15:47:31.561Z,2.60
2018-09-12T15:49:59.929Z,3.10
2018-09-12T15:52:28.362Z,3.13
2018-09-12T15:54:56.732Z,3.10
2018-09-12T15:57:25.149Z,4.20
2018-09-12T15:59:53.542Z,3.97
2018-09-12T16:02:21.901Z,3.30
2018-09-12T16:04:50.250Z,10.10
2018-09-12T16:07:18.593Z,3.23
2018-09-12T16:09:46.965Z,2.90
2018-09-12T16:12:15.320Z,5.03
2018-09-12T16:14:43.727Z,3.03
2018-09-12T16:17:12.096Z,4.07
2018-09-12T16:19:40.540Z,4.50
2018-09-12T16:22:08.901Z,5.97
2018-09-12T16:24:37.349Z,6.43
2018-09-12T16:27:05.775Z,4.13
2018-09-12T16:29:34.140Z,4.40
2018-09-12T16:32:03.339Z,3.47
2018-09-12T16:34:31.755Z,3.23
2018-09-12T16:37:00.139Z,3.27
2018-09-12T16:39:28.512Z,3.63
2018-09-12T16:41:57.628Z,3.37
2018-09-12T16:44:25.980Z,2.90
2018-09-12T16:46:54.413Z,3.90
2018-09-12T16:49:22.747Z,3.33
2018-09-12T16:51:51.150Z,5.10
2018-09-12T16:54:19.524Z,3.57
2018-09-12T16:56:48.012Z,4.60
2018-09-12T16:59:16.320Z,7.53
2018-09-12T17:01:44.718Z,6.97
2018-09-12T17:04:13.239Z,4.67
2018-09-12T17:06:41.658Z,7.07
2018-09-12T17:09:11.096Z,3.87
2018-09-12T17:11:39.615Z,3.13
2018-09-12T17:14:08.048Z,3.60
2018-09-12T17:16:36.436Z,3.87
2018-09-12T17:19:05.381Z,3.17
2018-09-12T17:21:33.757Z,5.43
2018-09-12T17:24:02.227Z,11.53
2018-09-12T17:26:30.653Z,3.70
2018-09-12T17:28:59.015Z,3.80
2018-09-12T17:31:27.492Z,4.90
2018-09-12T17:33:56.559Z,3.43
2018-09-12T17:36:26.749Z,4.60
2018-09-12T17:38:55.308Z,4.10
2018-09-12T17:41:23.829Z,4.00
2018-09-12T17:43:52.433Z,5.20
2018-09-12T17:46:20.928Z,4.13
2018-09-12T17:48:49.343Z,5.37
2018-09-12T17:51:17.881Z,3.57
2018-09-12T17:53:46.278Z,4.10
2018-09-12T17:56:14.844Z,6.33
2018-09-12T17:58:43.370Z,5.20
2018-09-12T18:01:12.475Z,5.43
2018-09-12T18:03:40.861Z,5.53
2018-09-12T18:06:09.245Z,6.40
2018-09-12T18:08:37.743Z,9.80
2018-09-12T18:11:06.148Z,6.20
2018-09-12T18:13:34.523Z,5.40
2018-09-12T18:16:02.935Z,3.83
2018-09-12T18:18:31.328Z,4.60
2018-09-12T18:20:59.765Z,5.93
2018-09-12T18:23:28.262Z,4.17
2018-09-12T18:25:56.781Z,7.03
2018-09-12T18:28:25.308Z,6.20
2018-09-12T18:30:53.867Z,7.63
2018-09-12T18:33:22.610Z,9.03
2018-09-12T18:35:51.976Z,10.80
2018-09-12T18:38:20.463Z,6.37
2018-09-12T18:40:49.069Z,5.77
2018-09-12T18:43:17.572Z,12.13
2018-09-12T18:45:46.029Z,10.00
2018-09-12T18:48:14.453Z,7.50
2018-09-12T18:50:43.009Z,5.07
2018-09-12T18:53:11.465Z,8.50
2018-09-12T18:55:40.055Z,8.80
2018-09-12T18:58:08.622Z,8.87
2018-09-12T19:00:37.051Z,6.93
2018-09-12T19:03:05.514Z,5.10
2018-09-12T19:05:33.958Z,5.33
2018-09-12T19:08:02.412Z,6.37
2018-09-12T19:10:31.025Z,6.23
2018-09-12T19:12:59.791Z,4.20
2018-09-12T19:15:28.194Z,4.30
2018-09-12T19:17:56.822Z,6.10
2018-09-12T19:20:25.389Z,4.30
2018-09-12T19:22:54.475Z,4.70
2018-09-12T19:25:23.503Z,5.03
2018-09-12T19:27:51.966Z,4.57
2018-09-12T19:30:20.451Z,4.30
2018-09-12T19:32:49.105Z,5.80
2018-09-12T19:35:17.578Z,4.63
2018-09-12T19:37:46.981Z,10.40
2018-09-12T19:40:15.381Z,5.33
2018-09-12T19:42:43.834Z,5.00
2018-09-12T19:45:12.415Z,6.33
2018-09-12T19:47:41.179Z,5.97
2018-09-12T19:50:09.679Z,4.67
2018-09-12T19:52:38.126Z,10.40
2018-09-12T19:55:13.311Z,4.67
2018-09-12T19:57:42.968Z,5.17
2018-09-12T20:00:13.701Z,8.37
2018-09-12T20:02:42.093Z,6.00
2018-09-12T20:05:11.259Z,7.80
2018-09-12T20:07:39.859Z,7.10
2018-09-12T20:10:08.915Z,9.77
2018-09-12T20:12:37.377Z,7.07
2018-09-12T20:15:05.886Z,9.40
2018-09-12T20:17:34.478Z,10.70
2018-09-12T20:20:02.998Z,8.63
2018-09-12T20:22:31.574Z,7.57
2018-09-12T20:25:01.070Z,8.53
2018-09-12T20:27:29.592Z,7.83
2018-09-12T20:29:58.428Z,15.67
2018-09-12T20:32:27.991Z,9.83
2018-09-12T20:34:56.445Z,9.17
2018-09-12T20:37:24.967Z,11.00
2018-09-12T20:39:53.357Z,9.13
2018-09-12T20:42:22.565Z,9.50
2018-09-12T20:44:50.997Z,10.00
2018-09-12T20:47:20.004Z,9.33
2018-09-12T20:50:06.812Z,10.40
2018-09-12T20:52:35.226Z,11.13
2018-09-12T20:55:04.446Z,10.30
2018-09-12T20:57:33.582Z,10.87
2018-09-12T21:00:02.055Z,11.53
2018-09-12T21:02:31.213Z,12.60
2018-09-12T21:04:59.650Z,11.57
2018-09-12T21:07:28.284Z,13.53
2018-09-12T21:09:57.351Z,13.20
2018-09-12T21:12:25.802Z,13.20
2018-09-12T21:14:55.123Z,13.03
2018-09-12T21:17:23.610Z,14.80
2018-09-12T21:19:52.034Z,13.33
2018-09-12T21:22:20.570Z,13.30
2018-09-12T21:24:48.970Z,15.30
2018-09-12T21:27:17.487Z,14.27
2018-09-12T21:29:45.910Z,13.53
2018-09-12T21:32:14.342Z,15.03
2018-09-12T21:34:43.215Z,15.17
2018-09-12T21:37:12.333Z,13.57
2018-09-12T21:39:40.796Z,16.10
2018-09-12T21:42:09.217Z,14.73
2018-09-12T21:44:37.801Z,14.40
2018-09-12T21:47:06.413Z,15.17
2018-09-12T21:49:34.823Z,15.00
2018-09-12T21:52:03.935Z,14.53
2018-09-12T21:54:32.355Z,15.50
2018-09-12T21:57:00.747Z,14.90
2018-09-12T21:59:29.255Z,17.13
2018-09-12T22:01:57.686Z,15.17
2018-09-12T22:04:26.062Z,17.57
2018-09-12T22:06:54.654Z,15.50
2018-09-12T22:09:23.089Z,14.90
2018-09-12T22:11:51.542Z,14.80
2018-09-12T22:14:20.005Z,13.80
2018-09-12T22:16:48.505Z,18.70
2018-09-12T22:19:16.943Z,15.10
2018-09-12T22:21:45.492Z,13.30
2018-09-12T22:24:14.078Z,13.10
2018-09-12T22:26:43.378Z,14.00
2018-09-12T22:29:11.786Z,16.03
2018-09-12T22:31:40.458Z,14.43
2018-09-12T22:34:08.853Z,14.17
2018-09-12T22:36:37.220Z,13.40
2018-09-12T22:39:11.115Z,12.33
2018-09-12T22:41:40.004Z,12.00
2018-09-12T22:44:08.538Z,12.80
2018-09-12T22:46:37.599Z,12.03
2018-09-12T22:49:06.005Z,12.30
2018-09-12T22:51:34.537Z,11.67
2018-09-12T22:54:03.083Z,11.60
2018-09-12T22:56:32.057Z,12.73
2018-09-12T22:59:00.486Z,11.07
2018-09-12T23:01:28.870Z,15.20
2018-09-12T23:03:57.291Z,11.47
2018-09-12T23:06:25.791Z,12.27
2018-09-12T23:08:54.982Z,10.77
2018-09-12T23:11:23.444Z,11.47
2018-09-12T23:13:51.879Z,11.33
2018-09-12T23:16:20.451Z,12.50
2018-09-12T23:18:48.821Z,11.77
2018-09-12T23:21:17.780Z,11.77
2018-09-12T23:23:46.351Z,10.07
2018-09-12T23:26:14.797Z,10.90
2018-09-12T23:28:44.017Z,12.37
2018-09-12T23:31:12.354Z,11.93
2018-09-12T23:33:40.705Z,11.23
2018-09-12T23:36:09.131Z,10.50
2018-09-12T23:38:38.107Z,13.47
2018-09-12T23:41:06.767Z,10.63
2018-09-12T23:43:35.148Z,10.10
2018-09-12T23:46:04.125Z,9.77
2018-09-12T23:48:32.494Z,11.23
2018-09-12T23:51:00.903Z,10.27
2018-09-12T23:53:29.369Z,17.03
2018-09-12T23:55:58.298Z,11.30
2018-09-12T23:58:31.029Z,14.40
